Time;durP1;ratioP1;P1;durP2;ratioP2;P2;SDS_P1;SDS_P2;PMS_P1;PMS_P2;Temp;Humidity;BMP_temperature;BMP_pressure;BME280_temperature;BME280_humidity;BME280_pressure;Samples;Min_cycle;Max_cycle;Signal;HPM_P1;HPM_P2
2019/11/27 00:00:30;;;;;;;2.93;2.63;;;;;;;19.94;45.99;98908.78;;;;-57
2019/11/27 00:03:30;;;;;;;2.85;2.61;;;;;;;19.92;45.94;98904.22;;;;-58
2019/11/27 00:06:30;;;;;;;2.89;2.65;;;;;;;19.92;45.94;98903.36;;;;-56
2019/11/27 00:09:29;;;;;;;2.94;2.64;;;;;;;19.90;46.02;98898.48;;;;-57
2019/11/27 00:12:30;;;;;;;2.99;2.67;;;;;;;19.90;45.99;98896.95;;;;-57
2019/11/27 00:15:30;;;;;;;2.96;2.65;;;;;;;19.89;45.94;98898.61;;;;-57
2019/11/27 00:18:30;;;;;;;2.82;2.62;;;;;;;19.88;45.98;98898.03;;;;-58
2019/11/27 00:21:30;;;;;;;2.74;2.54;;;;;;;19.86;45.98;98890.55;;;;-57
2019/11/27 00:24:30;;;;;;;2.82;2.62;;;;;;;19.86;45.99;98887.60;;;;-57
2019/11/27 00:27:30;;;;;;;3.09;2.79;;;;;;;19.84;46.00;98881.27;;;;-57
2019/11/27 00:30:29;;;;;;;2.90;2.70;;;;;;;19.83;46.05;98865.87;;;;-57
2019/11/27 00:38:29;;;;;;;2.96;2.68;;;;;;;19.80;46.06;98879.63;;;;-57
2019/11/27 00:41:29;;;;;;;2.71;2.51;;;;;;;19.79;46.02;98866.05;;;;-57
2019/11/27 00:44:29;;;;;;;2.87;2.65;;;;;;;19.78;46.05;98845.59;;;;-57
2019/11/27 00:47:29;;;;;;;2.89;2.69;;;;;;;19.77;46.07;98856.39;;;;-57
2019/11/27 00:50:30;;;;;;;2.78;2.50;;;;;;;19.75;46.09;98840.44;;;;-57
2019/11/27 00:53:29;;;;;;;3.07;2.73;;;;;;;19.73;46.10;98811.36;;;;-57
2019/11/27 00:56:29;;;;;;;2.90;2.70;;;;;;;19.74;46.09;98792.43;;;;-57
2019/11/27 00:59:29;;;;;;;2.73;2.53;;;;;;;19.72;46.06;98806.30;;;;-58
2019/11/27 01:02:29;;;;;;;2.90;2.64;;;;;;;19.71;46.13;98811.66;;;;-57
2019/11/27 01:05:29;;;;;;;2.99;2.73;;;;;;;19.70;46.08;98792.55;;;;-57
2019/11/27 01:08:29;;;;;;;3.00;2.70;;;;;;;19.69;46.11;98781.29;;;;-57
2019/11/27 01:11:29;;;;;;;2.76;2.56;;;;;;;19.69;46.10;98784.38;;;;-57
2019/11/27 01:14:29;;;;;;;2.99;2.73;;;;;;;19.68;46.10;98797.95;;;;-57
2019/11/27 01:17:29;;;;;;;2.84;2.57;;;;;;;19.67;46.12;98794.42;;;;-57
2019/11/27 01:20:29;;;;;;;2.69;2.49;;;;;;;19.66;46.11;98785.26;;;;-57
2019/11/27 01:23:29;;;;;;;2.71;2.51;;;;;;;19.64;46.19;98785.89;;;;-57
2019/11/27 01:26:29;;;;;;;2.85;2.58;;;;;;;19.64;46.13;98782.37;;;;-58
2019/11/27 01:29:29;;;;;;;2.83;2.63;;;;;;;19.64;46.13;98778.97;;;;-57
2019/11/27 01:32:29;;;;;;;2.85;2.63;;;;;;;19.63;46.12;98770.41;;;;-57
2019/11/27 01:35:29;;;;;;;2.80;2.60;;;;;;;19.61;46.10;98772.81;;;;-57
2019/11/27 01:38:29;;;;;;;2.81;2.56;;;;;;;19.60;46.18;98786.02;;;;-57
2019/11/27 01:41:29;;;;;;;2.67;2.47;;;;;;;19.61;46.15;98782.42;;;;-57
2019/11/27 01:44:29;;;;;;;3.37;2.56;;;;;;;19.58;46.15;98768.08;;;;-57
2019/11/27 01:47:29;;;;;;;3.09;2.79;;;;;;;19.58;46.11;98770.99;;;;-56
2019/11/27 01:50:29;;;;;;;2.95;2.75;;;;;;;19.58;46.17;98768.31;;;;-57
2019/11/27 01:53:29;;;;;;;2.93;2.65;;;;;;;19.57;46.15;98755.34;;;;-57
2019/11/27 01:56:29;;;;;;;2.92;2.67;;;;;;;19.56;46.17;98758.16;;;;-57
2019/11/27 01:59:29;;;;;;;3.05;2.79;;;;;;;19.55;46.18;98765.17;;;;-57
2019/11/27 02:02:29;;;;;;;3.07;2.77;;;;;;;19.54;46.17;98742.89;;;;-57
2019/11/27 02:05:29;;;;;;;2.80;2.60;;;;;;;19.53;46.21;98716.83;;;;-58
2019/11/27 02:08:29;;;;;;;2.95;2.71;;;;;;;19.52;46.18;98689.36;;;;-57
2019/11/27 02:11:29;;;;;;;2.86;2.66;;;;;;;19.52;46.14;98648.94;;;;-57
2019/11/27 02:14:29;;;;;;;2.74;2.54;;;;;;;19.51;46.23;98632.61;;;;-57
2019/11/27 02:17:29;;;;;;;2.95;2.69;;;;;;;19.49;46.16;98612.89;;;;-57
2019/11/27 02:20:29;;;;;;;2.71;2.51;;;;;;;19.49;46.18;98599.34;;;;-57
2019/11/27 02:23:29;;;;;;;2.91;2.71;;;;;;;19.49;46.15;98599.94;;;;-57
2019/11/27 02:26:30;;;;;;;3.25;2.53;;;;;;;19.48;46.14;98588.34;;;;-57
2019/11/27 02:29:29;;;;;;;2.79;2.55;;;;;;;19.47;46.15;98594.61;;;;-57
2019/11/27 02:33:07;;;;;;;2.74;2.54;;;;;;;19.46;46.17;98593.09;;;;-57
2019/11/27 02:35:34;;;;;;;2.73;2.53;;;;;;;19.45;46.17;98597.77;;;;-57
2019/11/27 02:38:29;;;;;;;2.81;2.60;;;;;;;19.45;46.13;98574.67;;;;-57
2019/11/27 02:41:29;;;;;;;3.01;2.70;;;;;;;19.44;46.12;98559.33;;;;-57
2019/11/27 02:44:29;;;;;;;2.81;2.61;;;;;;;19.43;46.14;98560.11;;;;-57
2019/11/27 02:47:29;;;;;;;3.04;2.74;;;;;;;19.43;46.19;98563.43;;;;-57
2019/11/27 02:50:29;;;;;;;2.95;2.75;;;;;;;19.42;46.18;98556.95;;;;-57
2019/11/27 02:53:29;;;;;;;3.01;2.68;;;;;;;19.41;46.18;98563.81;;;;-57
2019/11/27 02:56:29;;;;;;;3.05;2.79;;;;;;;19.40;46.11;98564.48;;;;-57
2019/11/27 02:59:29;;;;;;;2.77;2.57;;;;;;;19.39;46.20;98569.75;;;;-57
2019/11/27 03:02:29;;;;;;;2.59;2.39;;;;;;;19.39;46.15;98566.05;;;;-57
2019/11/27 03:05:29;;;;;;;2.66;2.46;;;;;;;19.38;46.19;98561.69;;;;-57
2019/11/27 03:08:29;;;;;;;2.92;2.67;;;;;;;19.37;46.19;98551.81;;;;-57
2019/11/27 03:11:29;;;;;;;2.92;2.61;;;;;;;19.36;46.15;98551.54;;;;-57
2019/11/27 03:14:29;;;;;;;2.81;2.61;;;;;;;19.36;46.17;98553.45;;;;-57
2019/11/27 03:17:29;;;;;;;3.01;2.75;;;;;;;19.35;46.24;98555.22;;;;-57
2019/11/27 03:20:29;;;;;;;2.85;2.65;;;;;;;19.35;46.18;98550.87;;;;-57
2019/11/27 03:23:29;;;;;;;3.00;2.71;;;;;;;19.34;46.21;98543.98;;;;-57
2019/11/27 03:32:38;;;;;;;2.85;2.65;;;;;;;19.31;46.23;98552.91;;;;-57
2019/11/27 03:35:29;;;;;;;2.82;2.47;;;;;;;19.30;46.25;98550.78;;;;-58
2019/11/27 03:38:29;;;;;;;3.05;2.75;;;;;;;19.31;46.20;98543.78;;;;-57
2019/11/27 03:41:29;;;;;;;3.11;2.81;;;;;;;19.30;46.21;98550.63;;;;-57
2019/11/27 03:44:29;;;;;;;2.75;2.55;;;;;;;19.30;46.20;98562.41;;;;-57
2019/11/27 03:49:29;;;;;;;2.67;2.47;;;;;;;19.28;46.27;98569.09;;;;-57
2019/11/27 03:53:29;;;;;;;2.64;2.44;;;;;;;19.27;46.24;98555.85;;;;-58
2019/11/27 03:56:29;;;;;;;2.68;2.48;;;;;;;19.27;46.21;98558.70;;;;-57
2019/11/27 04:02:29;;;;;;;2.81;2.61;;;;;;;19.26;46.29;98585.03;;;;-57
2019/11/27 04:05:29;;;;;;;3.11;2.81;;;;;;;19.25;46.25;98585.69;;;;-57
2019/11/27 04:08:29;;;;;;;2.73;2.53;;;;;;;19.25;46.26;98581.67;;;;-57
2019/11/27 04:11:29;;;;;;;2.63;2.43;;;;;;;19.25;46.24;98581.00;;;;-56
2019/11/27 04:14:29;;;;;;;2.81;2.61;;;;;;;19.25;46.27;98587.30;;;;-57
2019/11/27 04:23:55;;;;;;;2.89;2.59;;;;;;;19.28;46.29;98610.91;;;;-57
2019/11/27 04:28:55;;;;;;;2.84;2.58;;;;;;;19.31;46.32;98624.10;;;;-57
2019/11/27 04:34:00;;;;;;;2.58;2.38;;;;;;;19.34;46.46;98623.81;;;;-57
2019/11/27 04:36:56;;;;;;;2.60;2.40;;;;;;;19.37;46.39;98635.17;;;;-56
2019/11/27 04:39:55;;;;;;;2.55;2.35;;;;;;;19.42;46.30;98638.48;;;;-57
2019/11/27 04:42:55;;;;;;;2.63;2.43;;;;;;;19.44;46.31;98632.57;;;;-57
2019/11/27 04:45:55;;;;;;;2.49;2.29;;;;;;;19.48;46.29;98623.84;;;;-57
2019/11/27 04:48:55;;;;;;;2.63;2.43;;;;;;;19.52;46.38;98618.70;;;;-57
2019/11/27 04:58:21;;;;;;;2.91;2.60;;;;;;;19.65;46.26;98627.00;;;;-52
2019/11/27 05:05:21;;;;;;;4.05;2.56;;;;;;;19.71;46.34;98594.36;;;;-52
2019/11/27 05:09:21;;;;;;;2.54;2.32;;;;;;;19.76;46.39;98595.93;;;;-52
2019/11/27 05:12:20;;;;;;;2.65;2.30;;;;;;;19.78;46.48;98602.99;;;;-52
2019/11/27 05:18:21;;;;;;;2.63;2.43;;;;;;;19.84;46.51;98595.50;;;;-52
2019/11/27 05:21:21;;;;;;;2.50;2.27;;;;;;;19.86;46.53;98590.61;;;;-52
2019/11/27 05:25:21;;;;;;;2.52;2.32;;;;;;;19.90;46.50;98597.02;;;;-52
2019/11/27 05:28:21;;;;;;;3.09;2.32;;;;;;;19.91;46.48;98596.80;;;;-52
2019/11/27 05:31:21;;;;;;;2.40;2.20;;;;;;;19.94;46.48;98594.03;;;;-52
2019/11/27 05:35:21;;;;;;;2.41;2.19;;;;;;;19.97;46.53;98598.42;;;;-52
2019/11/27 05:38:20;;;;;;;2.68;2.10;;;;;;;19.99;46.50;98590.27;;;;-52
2019/11/27 05:42:21;;;;;;;2.63;2.32;;;;;;;20.01;46.48;98597.09;;;;-52
2019/11/27 05:46:21;;;;;;;2.69;1.97;;;;;;;20.05;46.45;98587.42;;;;-52
2019/11/27 05:49:21;;;;;;;2.35;2.01;;;;;;;20.08;46.45;98586.19;;;;-52
2019/11/27 05:52:21;;;;;;;2.40;2.20;;;;;;;20.10;46.41;98594.85;;;;-52
2019/11/27 05:55:21;;;;;;;2.43;2.23;;;;;;;20.12;46.43;98594.38;;;;-52
2019/11/27 06:00:21;;;;;;;2.29;2.09;;;;;;;20.16;46.44;98616.36;;;;-52
2019/11/27 06:03:21;;;;;;;2.23;2.03;;;;;;;20.18;46.40;98624.59;;;;-52
2019/11/27 06:08:21;;;;;;;2.27;2.07;;;;;;;20.22;46.43;98621.31;;;;-52
2019/11/27 06:11:21;;;;;;;2.58;2.19;;;;;;;20.24;46.37;98634.55;;;;-52
2019/11/27 06:15:21;;;;;;;4.40;2.14;;;;;;;20.28;46.37;98641.73;;;;-49
2019/11/27 06:18:21;;;;;;;2.63;2.37;;;;;;;20.31;46.24;98644.12;;;;-51
2019/11/27 06:21:21;;;;;;;3.49;2.49;;;;;;;20.33;46.32;98638.28;;;;-50
2019/11/27 06:26:21;;;;;;;3.62;2.42;;;;;;;20.39;46.76;98625.27;;;;-50
2019/11/27 06:32:21;;;;;;;6.83;3.29;;;;;;;20.41;45.29;98618.75;;;;-56
2019/11/27 06:40:21;;;;;;;5.93;3.35;;;;;;;20.41;45.53;98617.41;;;;-50
2019/11/27 06:44:21;;;;;;;4.71;3.29;;;;;;;20.43;45.30;98620.44;;;;-47
2019/11/27 06:48:21;;;;;;;3.05;2.73;;;;;;;20.48;45.37;98640.84;;;;-55
2019/11/27 06:54:21;;;;;;;6.47;2.93;;;;;;;20.53;45.75;98652.41;;;;-53
2019/11/27 06:58:21;;;;;;;3.23;2.79;;;;;;;20.58;45.66;98654.63;;;;-50
2019/11/27 07:04:21;;;;;;;5.16;2.89;;;;;;;20.62;45.49;98654.34;;;;-50
2019/11/27 07:09:21;;;;;;;3.96;3.01;;;;;;;20.65;45.24;98654.19;;;;-51
2019/11/27 07:12:21;;;;;;;3.33;3.01;;;;;;;20.70;45.85;98654.66;;;;-55
2019/11/27 07:15:35;;;;;;;4.09;2.80;;;;;;;20.74;45.41;98657.95;;;;-52
2019/11/27 07:21:21;;;;;;;4.82;3.02;;;;;;;20.75;44.96;98647.75;;;;-44
2019/11/27 07:26:21;;;;;;;6.07;2.97;;;;;;;20.82;46.07;98654.23;;;;-57
2019/11/27 07:29:20;;;;;;;3.28;2.83;;;;;;;20.83;45.94;98651.54;;;;-51
2019/11/27 07:32:21;;;;;;;2.77;2.44;;;;;;;20.85;46.06;98649.31;;;;-51
2019/11/27 07:37:21;;;;;;;2.82;2.55;;;;;;;20.89;45.79;98651.19;;;;-51
2019/11/27 07:40:21;;;;;;;2.77;2.43;;;;;;;20.91;45.83;98642.16;;;;-50
2019/11/27 07:43:21;;;;;;;4.13;2.56;;;;;;;20.93;45.74;98652.23;;;;-46
2019/11/27 07:46:21;;;;;;;2.96;2.45;;;;;;;20.96;46.01;98661.13;;;;-50
2019/11/27 07:49:21;;;;;;;3.07;2.51;;;;;;;20.99;45.93;98669.88;;;;-58
2019/11/27 07:52:21;;;;;;;2.58;2.38;;;;;;;21.00;45.96;98669.91;;;;-51
2019/11/27 07:55:21;;;;;;;4.83;2.38;;;;;;;21.02;45.93;98671.09;;;;-58
2019/11/27 07:58:21;;;;;;;2.74;2.42;;;;;;;21.07;46.23;98671.73;;;;-53
2019/11/27 08:01:21;;;;;;;2.66;2.39;;;;;;;21.09;45.90;98672.86;;;;-50
2019/11/27 08:04:21;;;;;;;3.91;2.53;;;;;;;21.08;45.55;98679.61;;;;-50
2019/11/27 08:07:21;;;;;;;4.72;2.35;;;;;;;21.07;45.61;98681.87;;;;-50
2019/11/27 08:10:21;;;;;;;3.26;2.41;;;;;;;21.07;45.49;98687.00;;;;-50
2019/11/27 08:13:21;;;;;;;2.56;2.26;;;;;;;21.07;45.59;98681.47;;;;-50
2019/11/27 08:16:21;;;;;;;2.41;2.21;;;;;;;21.07;45.45;98681.38;;;;-49
2019/11/27 08:20:21;;;;;;;2.75;2.33;;;;;;;21.07;45.46;98674.23;;;;-49
2019/11/27 08:23:21;;;;;;;2.40;2.20;;;;;;;21.07;45.41;98681.54;;;;-50
2019/11/27 08:26:21;;;;;;;2.63;2.29;;;;;;;21.06;45.44;98677.84;;;;-50
2019/11/27 08:29:21;;;;;;;2.87;2.17;;;;;;;21.05;45.49;98674.30;;;;-51
2019/11/27 08:33:21;;;;;;;5.10;2.50;;;;;;;21.08;45.61;98680.28;;;;-46
2019/11/27 08:39:21;;;;;;;3.23;2.68;;;;;;;21.09;45.48;98689.13;;;;-51
2019/11/27 08:45:21;;;;;;;3.27;2.72;;;;;;;21.11;45.57;98692.99;;;;-51
2019/11/27 08:48:21;;;;;;;3.22;2.58;;;;;;;21.12;45.64;98702.73;;;;-50
2019/11/27 08:51:21;;;;;;;3.29;2.50;;;;;;;21.14;45.71;98699.83;;;;-52
2019/11/27 08:54:21;;;;;;;3.07;2.45;;;;;;;21.12;45.50;98702.05;;;;-52
2019/11/27 08:57:21;;;;;;;3.29;2.50;;;;;;;21.11;45.32;98688.70;;;;-52
2019/11/27 09:00:23;;;;;;;2.69;2.46;;;;;;;21.10;45.37;98687.97;;;;-52
2019/11/27 09:03:30;;;;;;;2.59;2.33;;;;;;;21.09;45.34;98686.69;;;;-52
2019/11/27 09:06:21;;;;;;;2.91;2.23;;;;;;;21.10;45.33;98696.67;;;;-52
2019/11/27 09:09:21;;;;;;;3.73;2.50;;;;;;;21.10;45.31;98696.34;;;;-52
2019/11/27 09:12:21;;;;;;;2.32;2.11;;;;;;;21.08;45.31;98700.78;;;;-52
2019/11/27 09:15:38;;;;;;;2.57;2.25;;;;;;;21.08;45.33;98709.34;;;;-52
2019/11/27 09:18:25;;;;;;;2.91;2.26;;;;;;;21.07;45.29;98702.45;;;;-52
2019/11/27 09:21:21;;;;;;;2.71;2.21;;;;;;;21.07;45.29;98699.00;;;;-52
2019/11/27 09:24:21;;;;;;;2.40;2.20;;;;;;;21.07;45.31;98701.17;;;;-52
2019/11/27 09:27:21;;;;;;;2.43;2.17;;;;;;;21.06;45.27;98696.66;;;;-52
2019/11/27 09:36:47;;;;;;;2.25;2.05;;;;;;;21.05;45.26;98698.91;;;;-52
2019/11/27 09:41:46;;;;;;;3.23;2.13;;;;;;;21.05;45.29;98701.91;;;;-52
2019/11/27 09:46:46;;;;;;;2.66;2.00;;;;;;;21.05;45.29;98698.56;;;;-52
2019/11/27 09:49:46;;;;;;;2.40;2.20;;;;;;;21.05;45.23;98688.81;;;;-52
2019/11/27 09:52:46;;;;;;;2.20;2.00;;;;;;;21.04;45.25;98689.06;;;;-52
2019/11/27 09:55:46;;;;;;;2.15;1.95;;;;;;;21.04;45.29;98690.50;;;;-52
2019/11/27 09:58:46;;;;;;;2.49;2.10;;;;;;;21.04;45.29;98684.87;;;;-52
2019/11/27 10:01:46;;;;;;;2.98;2.21;;;;;;;21.05;45.31;98685.62;;;;-52
2019/11/27 10:04:46;;;;;;;2.35;2.15;;;;;;;21.05;45.26;98672.96;;;;-52
2019/11/27 10:08:46;;;;;;;2.30;2.09;;;;;;;21.04;45.28;98663.62;;;;-52
2019/11/27 10:11:46;;;;;;;2.33;2.03;;;;;;;21.05;45.29;98662.72;;;;-52
2019/11/27 10:16:46;;;;;;;2.45;2.06;;;;;;;21.04;45.32;98663.55;;;;-52
2019/11/27 10:19:46;;;;;;;2.03;1.83;;;;;;;21.04;45.26;98653.00;;;;-52
2019/11/27 10:22:46;;;;;;;2.12;1.92;;;;;;;21.04;45.28;98648.95;;;;-52
2019/11/27 10:25:46;;;;;;;2.34;2.14;;;;;;;21.05;45.25;98643.67;;;;-52
2019/11/27 10:28:46;;;;;;;2.71;2.09;;;;;;;21.04;45.28;98643.01;;;;-52
2019/11/27 10:31:46;;;;;;;2.16;1.96;;;;;;;21.04;45.29;98635.38;;;;-52
2019/11/27 10:34:46;;;;;;;1.95;1.83;;;;;;;21.04;45.28;98633.53;;;;-52
2019/11/27 10:37:46;;;;;;;2.13;1.93;;;;;;;21.04;45.27;98625.30;;;;-52
2019/11/27 10:40:46;;;;;;;2.20;2.00;;;;;;;21.05;45.29;98622.02;;;;-52
2019/11/27 10:44:03;;;;;;;2.15;1.95;;;;;;;21.05;45.29;98610.36;;;;-52
2019/11/27 10:46:46;;;;;;;2.00;1.90;;;;;;;21.05;45.31;98614.73;;;;-52
2019/11/27 10:49:47;;;;;;;2.40;1.97;;;;;;;21.04;45.28;98612.73;;;;-52
2019/11/27 10:53:47;;;;;;;5.23;2.00;;;;;;;21.08;45.64;98607.95;;;;-46
2019/11/27 10:56:46;;;;;;;2.16;1.94;;;;;;;21.09;45.70;98601.77;;;;-46
2019/11/27 10:59:46;;;;;;;2.21;1.99;;;;;;;21.10;45.77;98599.02;;;;-46
2019/11/27 11:02:46;;;;;;;3.78;1.84;;;;;;;21.13;45.87;98596.67;;;;-45
2019/11/27 11:05:46;;;;;;;2.01;1.81;;;;;;;21.15;45.87;98598.44;;;;-48
2019/11/27 11:08:46;;;;;;;4.51;1.74;;;;;;;21.16;45.89;98595.00;;;;-49
2019/11/27 11:11:46;;;;;;;2.05;1.81;;;;;;;21.20;45.89;98590.75;;;;-51
2019/11/27 11:14:46;;;;;;;2.59;1.89;;;;;;;21.17;45.51;98588.88;;;;-51
2019/11/27 11:17:46;;;;;;;1.98;1.80;;;;;;;21.16;45.42;98582.91;;;;-51
2019/11/27 11:20:46;;;;;;;1.99;1.80;;;;;;;21.16;45.36;98587.29;;;;-50
2019/11/27 11:23:46;;;;;;;2.11;1.71;;;;;;;21.15;45.45;98586.03;;;;-51
2019/11/27 11:26:46;;;;;;;1.80;1.70;;;;;;;21.14;45.40;98579.48;;;;-52
2019/11/27 11:29:46;;;;;;;2.51;1.72;;;;;;;21.14;45.33;98579.31;;;;-51
2019/11/27 11:32:46;;;;;;;1.97;1.80;;;;;;;21.14;45.38;98576.45;;;;-51
2019/11/27 11:35:46;;;;;;;3.47;1.91;;;;;;;21.14;45.33;98571.92;;;;-51
2019/11/27 11:38:46;;;;;;;1.90;1.79;;;;;;;21.13;45.38;98569.06;;;;-50
2019/11/27 11:42:47;;;;;;;2.29;1.89;;;;;;;21.14;45.22;98565.12;;;;-51
2019/11/27 11:48:46;;;;;;;2.09;1.89;;;;;;;21.12;45.31;98558.88;;;;-51
2019/11/27 11:51:46;;;;;;;4.25;1.86;;;;;;;21.15;45.60;98550.02;;;;-51
2019/11/27 11:54:46;;;;;;;4.37;1.79;;;;;;;21.17;45.72;98554.73;;;;-47
2019/11/27 11:59:46;;;;;;;2.70;1.79;;;;;;;21.22;45.91;98551.82;;;;-56
2019/11/27 12:02:46;;;;;;;3.83;1.89;;;;;;;21.25;45.78;98557.20;;;;-48
2019/11/27 12:05:46;;;;;;;5.25;1.94;;;;;;;21.25;45.68;98549.49;;;;-49
2019/11/27 12:15:12;;;;;;;5.39;1.80;;;;;;;21.25;45.86;98551.42;;;;-52
2019/11/27 12:19:12;;;;;;;2.69;1.79;;;;;;;21.27;45.84;98541.51;;;;-47
2019/11/27 12:22:12;;;;;;;1.79;1.60;;;;;;;21.28;46.02;98544.70;;;;-48
2019/11/27 12:25:12;;;;;;;3.79;1.80;;;;;;;21.29;46.05;98544.15;;;;-49
2019/11/27 12:28:12;;;;;;;2.72;1.63;;;;;;;21.28;45.89;98543.38;;;;-55
2019/11/27 12:31:12;;;;;;;3.32;1.75;;;;;;;21.30;45.89;98542.88;;;;-49
2019/11/27 12:34:12;;;;;;;2.17;1.62;;;;;;;21.29;45.71;98536.58;;;;-49
2019/11/27 12:37:12;;;;;;;2.66;1.85;;;;;;;21.28;45.60;98534.47;;;;-49
2019/11/27 12:41:12;;;;;;;2.05;1.74;;;;;;;21.26;45.55;98525.81;;;;-48
2019/11/27 12:44:12;;;;;;;2.14;1.75;;;;;;;21.26;45.57;98528.34;;;;-49
2019/11/27 12:47:12;;;;;;;2.60;1.71;;;;;;;21.25;45.52;98520.21;;;;-49
2019/11/27 12:50:12;;;;;;;2.73;1.66;;;;;;;21.24;45.47;98522.37;;;;-49
2019/11/27 12:53:12;;;;;;;3.05;1.78;;;;;;;21.27;45.51;98522.47;;;;-45
2019/11/27 12:56:12;;;;;;;2.09;1.65;;;;;;;21.27;45.85;98521.55;;;;-46
2019/11/27 12:59:12;;;;;;;4.91;1.73;;;;;;;21.29;46.07;98519.12;;;;-51
2019/11/27 13:02:12;;;;;;;1.92;1.50;;;;;;;21.30;45.96;98508.56;;;;-51
2019/11/27 13:05:12;;;;;;;3.00;1.55;;;;;;;21.30;46.02;98505.86;;;;-51
2019/11/27 13:08:12;;;;;;;2.48;1.58;;;;;;;21.32;45.98;98501.25;;;;-50
2019/11/27 13:11:12;;;;;;;2.89;1.62;;;;;;;21.33;45.98;98502.53;;;;-51
2019/11/27 13:14:12;;;;;;;2.26;1.67;;;;;;;21.34;45.76;98495.83;;;;-49
2019/11/27 13:17:12;;;;;;;2.63;1.63;;;;;;;21.35;45.91;98490.02;;;;-51
2019/11/27 13:20:12;;;;;;;1.79;1.61;;;;;;;21.35;45.90;98488.09;;;;-51
2019/11/27 13:23:12;;;;;;;2.49;1.60;;;;;;;21.36;46.08;98493.88;;;;-47
2019/11/27 13:26:12;;;;;;;1.91;1.73;;;;;;;21.38;46.21;98488.09;;;;-52
2019/11/27 13:29:12;;;;;;;4.99;1.77;;;;;;;21.40;45.86;98485.19;;;;-47
2019/11/27 13:32:12;;;;;;;2.39;1.60;;;;;;;21.41;46.09;98482.91;;;;-50
2019/11/27 13:35:12;;;;;;;3.59;1.63;;;;;;;21.41;46.21;98481.15;;;;-49
2019/11/27 13:38:12;;;;;;;3.33;1.72;;;;;;;21.42;46.25;98475.95;;;;-48
2019/11/27 13:41:12;;;;;;;3.21;1.59;;;;;;;21.44;46.64;98476.05;;;;-50
2019/11/27 13:44:12;;;;;;;4.37;1.49;;;;;;;21.42;46.12;98471.84;;;;-48
2019/11/27 13:47:12;;;;;;;3.59;1.61;;;;;;;21.39;45.73;98469.30;;;;-58
2019/11/27 13:50:12;;;;;;;1.99;1.46;;;;;;;21.36;45.47;98468.20;;;;-52
2019/11/27 13:53:12;;;;;;;4.73;1.49;;;;;;;21.36;45.53;98467.27;;;;-50
2019/11/27 13:56:12;;;;;;;1.96;1.65;;;;;;;21.37;45.72;98466.11;;;;-47
2019/11/27 13:59:12;;;;;;;3.17;1.63;;;;;;;21.38;45.74;98474.84;;;;-49
2019/11/27 14:02:12;;;;;;;3.57;1.60;;;;;;;21.40;45.92;98488.20;;;;-49
2019/11/27 14:05:12;;;;;;;1.67;1.49;;;;;;;21.41;45.90;98486.09;;;;-50
2019/11/27 14:08:12;;;;;;;9.66;1.62;;;;;;;21.42;45.83;98479.91;;;;-58
2019/11/27 14:11:13;;;;;;;2.99;1.61;;;;;;;21.43;45.96;98478.47;;;;-54
2019/11/27 14:14:12;;;;;;;2.01;1.48;;;;;;;21.43;45.93;98473.42;;;;-48
2019/11/27 14:17:12;;;;;;;2.09;1.47;;;;;;;21.45;46.12;98473.43;;;;-54
2019/11/27 14:20:12;;;;;;;2.64;1.50;;;;;;;21.46;45.97;98474.78;;;;-47
2019/11/27 14:23:12;;;;;;;1.87;1.50;;;;;;;21.47;45.87;98477.31;;;;-45
2019/11/27 14:26:12;;;;;;;3.44;1.40;;;;;;;21.50;46.10;98478.27;;;;-53
2019/11/27 14:29:12;;;;;;;1.70;1.44;;;;;;;21.51;45.90;98483.55;;;;-52
2019/11/27 14:32:12;;;;;;;3.39;1.61;;;;;;;21.52;46.27;98493.28;;;;-51
2019/11/27 14:35:12;;;;;;;2.75;1.55;;;;;;;21.55;46.26;98498.34;;;;-53
2019/11/27 14:40:12;;;;;;;1.50;1.40;;;;;;;21.55;46.07;98495.06;;;;-49
2019/11/27 14:44:12;;;;;;;1.60;1.45;;;;;;;21.56;45.90;98494.91;;;;-48
2019/11/27 14:47:12;;;;;;;1.53;1.43;;;;;;;21.59;45.80;98491.23;;;;-50
2019/11/27 14:50:12;;;;;;;4.14;1.60;;;;;;;21.62;45.89;98497.39;;;;-50
2019/11/27 14:55:12;;;;;;;2.69;1.46;;;;;;;21.59;45.70;98490.16;;;;-51
2019/11/27 14:58:12;;;;;;;5.54;1.57;;;;;;;21.60;45.87;98487.06;;;;-51
2019/11/27 15:01:12;;;;;;;2.38;1.43;;;;;;;21.62;46.00;98486.30;;;;-50
2019/11/27 15:04:12;;;;;;;1.74;1.38;;;;;;;21.65;45.96;98477.25;;;;-51
2019/11/27 15:07:12;;;;;;;2.64;1.60;;;;;;;21.64;46.21;98472.88;;;;-50
2019/11/27 15:10:12;;;;;;;1.59;1.45;;;;;;;21.65;46.14;98476.16;;;;-49
2019/11/27 15:13:12;;;;;;;1.54;1.35;;;;;;;21.66;45.80;98482.94;;;;-52
2019/11/27 15:18:12;;;;;;;2.74;1.40;;;;;;;21.66;46.23;98487.16;;;;-57
2019/11/27 15:21:12;;;;;;;1.77;1.38;;;;;;;21.66;46.15;98486.91;;;;-50
2019/11/27 15:24:12;;;;;;;1.84;1.47;;;;;;;21.67;45.83;98488.42;;;;-51
2019/11/27 15:27:12;;;;;;;2.49;1.48;;;;;;;21.67;45.99;98489.18;;;;-45
2019/11/27 15:30:12;;;;;;;1.51;1.39;;;;;;;21.67;46.27;98492.55;;;;-49
2019/11/27 15:34:12;;;;;;;2.54;1.40;;;;;;;21.68;45.91;98484.97;;;;-51
2019/11/27 15:37:12;;;;;;;2.89;1.36;;;;;;;21.69;46.25;98482.38;;;;-52
2019/11/27 15:40:12;;;;;;;1.41;1.30;;;;;;;21.68;46.04;98483.38;;;;-50
2019/11/27 15:43:12;;;;;;;1.50;1.40;;;;;;;21.69;46.29;98490.02;;;;-50
2019/11/27 15:46:12;;;;;;;2.06;1.40;;;;;;;21.69;45.93;98494.73;;;;-48
2019/11/27 15:49:12;;;;;;;1.87;1.41;;;;;;;21.70;46.28;98487.08;;;;-50
2019/11/27 15:52:12;;;;;;;4.91;1.36;;;;;;;21.70;46.06;98483.31;;;;-51
2019/11/27 15:55:12;;;;;;;1.35;1.25;;;;;;;21.66;45.66;98480.25;;;;-49
2019/11/27 15:58:12;;;;;;;2.73;1.41;;;;;;;21.69;45.91;98479.00;;;;-51
2019/11/27 16:03:12;;;;;;;4.11;1.41;;;;;;;21.68;45.69;98480.45;;;;-48
2019/11/27 16:06:12;;;;;;;1.98;1.57;;;;;;;21.68;45.63;98476.40;;;;-49
2019/11/27 16:09:13;;;;;;;2.37;1.31;;;;;;;21.66;45.54;98478.59;;;;-49
2019/11/27 16:12:12;;;;;;;2.41;1.33;;;;;;;21.66;45.58;98478.26;;;;-48
2019/11/27 16:15:12;;;;;;;1.82;1.34;;;;;;;21.65;45.54;98471.34;;;;-49
2019/11/27 16:18:12;;;;;;;2.72;1.30;;;;;;;21.64;45.55;98472.35;;;;-49
2019/11/27 16:21:12;;;;;;;1.99;1.43;;;;;;;21.64;45.54;98476.22;;;;-49
2019/11/27 16:24:12;;;;;;;2.78;1.35;;;;;;;21.62;45.56;98480.42;;;;-49
2019/11/27 16:27:12;;;;;;;2.53;1.45;;;;;;;21.63;45.50;98475.47;;;;-49
2019/11/27 16:30:12;;;;;;;2.50;1.36;;;;;;;21.62;45.54;98480.26;;;;-49
2019/11/27 16:33:12;;;;;;;1.40;1.30;;;;;;;21.62;45.50;98485.73;;;;-49
2019/11/27 16:36:12;;;;;;;1.41;1.30;;;;;;;21.62;45.54;98488.06;;;;-48
2019/11/27 16:39:12;;;;;;;1.51;1.28;;;;;;;21.62;45.54;98491.33;;;;-49
2019/11/27 16:42:12;;;;;;;1.39;1.20;;;;;;;21.63;45.54;98493.69;;;;-49
2019/11/27 16:45:12;;;;;;;3.03;1.46;;;;;;;21.64;45.66;98496.89;;;;-47
2019/11/27 16:48:12;;;;;;;3.15;1.28;;;;;;;21.68;45.81;98495.14;;;;-48
2019/11/27 16:51:12;;;;;;;1.32;1.22;;;;;;;21.70;45.89;98494.80;;;;-51
2019/11/27 16:54:12;;;;;;;1.48;1.21;;;;;;;21.71;45.77;98500.94;;;;-48
2019/11/27 16:57:12;;;;;;;2.47;1.29;;;;;;;21.77;45.88;98499.77;;;;-49
2019/11/27 17:00:12;;;;;;;5.07;1.33;;;;;;;21.75;45.50;98497.25;;;;-50
2019/11/27 17:03:12;;;;;;;4.48;1.38;;;;;;;21.77;45.90;98492.14;;;;-50
2019/11/27 17:06:14;;;;;;;3.01;1.23;;;;;;;21.77;45.64;98494.75;;;;-50
2019/11/27 17:09:12;;;;;;;2.95;1.43;;;;;;;21.75;45.58;98493.73;;;;-49
2019/11/27 17:12:12;;;;;;;1.89;1.30;;;;;;;21.73;45.56;98495.15;;;;-50
2019/11/27 17:15:12;;;;;;;3.05;1.47;;;;;;;21.73;45.46;98495.59;;;;-50
2019/11/27 17:18:12;;;;;;;1.88;1.19;;;;;;;21.72;45.53;98493.22;;;;-49
2019/11/27 17:21:12;;;;;;;1.31;1.19;;;;;;;21.72;45.50;98500.63;;;;-49
2019/11/27 17:24:12;;;;;;;1.53;1.22;;;;;;;21.71;45.47;98503.22;;;;-49
2019/11/27 17:29:12;;;;;;;1.55;1.10;;;;;;;21.71;45.46;98506.91;;;;-50
2019/11/27 17:32:12;;;;;;;1.69;1.14;;;;;;;21.70;45.49;98512.38;;;;-50
2019/11/27 17:35:12;;;;;;;3.01;1.27;;;;;;;21.70;45.49;98523.37;;;;-49
2019/11/27 17:38:12;;;;;;;4.53;1.45;;;;;;;21.68;45.49;98509.06;;;;-49
2019/11/27 17:41:12;;;;;;;2.30;1.40;;;;;;;21.69;45.49;98514.56;;;;-49
2019/11/27 17:44:12;;;;;;;2.32;1.20;;;;;;;21.68;45.46;98518.23;;;;-49
2019/11/27 17:47:12;;;;;;;1.40;1.30;;;;;;;21.66;45.49;98518.07;;;;-49
2019/11/27 17:50:12;;;;;;;1.77;1.21;;;;;;;21.65;45.51;98524.04;;;;-50
2019/11/27 17:53:12;;;;;;;1.33;1.20;;;;;;;21.65;45.46;98524.55;;;;-49
2019/11/27 17:56:12;;;;;;;2.24;1.25;;;;;;;21.65;45.43;98526.28;;;;-49
2019/11/27 17:59:12;;;;;;;2.08;1.29;;;;;;;21.64;45.50;98523.44;;;;-49
2019/11/27 18:02:12;;;;;;;2.02;1.34;;;;;;;21.63;45.49;98522.16;;;;-49
2019/11/27 18:05:12;;;;;;;1.21;1.11;;;;;;;21.62;45.44;98529.05;;;;-49
2019/11/27 18:08:12;;;;;;;2.52;1.39;;;;;;;21.62;45.27;98528.56;;;;-49
2019/11/27 18:11:12;;;;;;;2.23;1.30;;;;;;;21.62;44.97;98525.18;;;;-49
2019/11/27 18:14:12;;;;;;;3.87;1.20;;;;;;;21.62;45.22;98524.17;;;;-50
2019/11/27 18:17:12;;;;;;;4.06;1.45;;;;;;;21.63;45.24;98522.42;;;;-50
2019/11/27 18:20:12;;;;;;;2.44;1.24;;;;;;;21.63;45.24;98523.60;;;;-51
2019/11/27 18:23:12;;;;;;;2.23;1.25;;;;;;;21.63;45.33;98518.22;;;;-51
2019/11/27 18:26:12;;;;;;;1.47;1.30;;;;;;;21.62;45.27;98516.30;;;;-50
2019/11/27 18:29:12;;;;;;;4.05;1.24;;;;;;;21.62;45.21;98524.44;;;;-50
2019/11/27 18:32:12;;;;;;;2.36;1.23;;;;;;;21.62;45.19;98525.35;;;;-51
2019/11/27 18:35:12;;;;;;;1.70;1.21;;;;;;;21.62;45.22;98529.81;;;;-51
2019/11/27 18:38:12;;;;;;;1.67;1.10;;;;;;;21.63;45.21;98537.87;;;;-51
2019/11/27 18:41:12;;;;;;;2.01;1.20;;;;;;;21.63;45.14;98537.36;;;;-50
2019/11/27 18:44:12;;;;;;;1.32;1.18;;;;;;;21.62;45.19;98535.43;;;;-50
2019/11/27 18:47:12;;;;;;;4.18;1.23;;;;;;;21.65;45.13;98542.74;;;;-53
2019/11/27 18:50:12;;;;;;;3.49;1.30;;;;;;;21.66;45.26;98548.23;;;;-53
2019/11/27 18:53:12;;;;;;;1.35;1.10;;;;;;;21.67;45.27;98546.28;;;;-53
2019/11/27 18:56:12;;;;;;;1.75;1.20;;;;;;;21.66;44.99;98542.41;;;;-53
2019/11/27 18:59:12;;;;;;;6.94;1.36;;;;;;;21.73;45.69;98546.66;;;;-46
2019/11/27 19:02:12;;;;;;;3.31;1.41;;;;;;;21.75;45.86;98546.98;;;;-51